Pineville, MO (64856)

11:21 AM CDT on October 01, 2014 (GMT -0500)
Loch Lomond | Change Station
CLOSE
Current Station
Personal Weather Station
Location: Bella Vista, AR
Elevation: 1243 ft
Nearby Weather Stations

Elev 1243 ft 36.48 °N, 94.33 °W | Updated 20 minutes ago

Overcast
Overcast
79.7 °F
Feels Like 83 °F
N
2.0
Wind Variable Wind from SSW
Gusts 5.0 mph

Today
High -- | Low -- °F
--% Chance of Precip.
Yesterday
High -- | Low -- °F
Precip. -- in
7:12 AM 7:00 PM
Waxing Crescent, 49% visible
Pressure 29.88 in
Visibility 10.0 miles
Clouds Mostly Cloudy 2600 ft
Overcast 3400 ft
Heat Index 83 °F
Dew Point 70 °F
Humidity 71%
Rainfall 0.00 in
Snow Depth Not available.
UV 2 out of 12
Pollen 5.00 out of 12
Air Quality Not available.
Flu Activity Not available.
METAR KVBT 011615Z AUTO 22011G17KT 10SM BKN026 OVC034 26/19 A2988 RMK AO1

More Conditions Fewer Conditions

Pressure 29.88 in
Visibility 10.0 miles
Clouds Mostly Cloudy 2600 ft
Overcast 3400 ft
Heat Index 83 °F
Dew Point 70 °F
Humidity 71%
Rainfall 0.00 in
Snow Depth Not available.
UV 2 out of 12
Pollen 5.00 out of 12
Air Quality Not available.
Flu Activity Not available.
METAR KVBT 011615Z AUTO 22011G17KT 10SM BKN026 OVC034 26/19 A2988 RMK AO1

More Conditions Fewer Conditions

10-Day Weather Forecast

Almanac

Astronomy

Oct. 01, 2014 Rise Set
Actual Time 7:12 AM CDT 7:00 PM CDT
Civil Twilight 6:46 AM CDT 7:26 PM CDT
Nautical Twilight 6:17 AM CDT 7:56 PM CDT
Astronomical Twilight 5:46 AM CDT 8:26 PM CDT
Moon 2:07 PM CDT No Moon Set
Length of Visible Light 12h 39m
Length of Day
11h 48m
Tomorrow will be 2m 18s shorter.
Waxing Crescent, 49% of the Moon is Illuminated
Today
Waxing Crescent
Oct 1
First Quarter
Oct 8
Full
Oct 15
Last Quarter
Oct 23
New

Today's Extremes

State Highs State Lows

Community

WunderPhotos

Upload Photos

1,757,980 photos uploaded!

WunderBlogs® & News

Nearby

Snow Depth

Station Depth Elevation
No new snow has been reported.

Earthquake Activity

City Distance Mag. Time & Date
Parsons, Kansas 78 miles 3.0 7:33 PM CDT
2014-09-30
Minimum magnitude displayed is 2.5.

Coastal Water Temperatures

Place Temperature
No Stations Reporting

Nearby Weather Stations